createdAt,value
2018-03-19T00:01:10.296Z,2.38
2018-03-19T00:03:38.938Z,2.42
2018-03-19T00:06:06.618Z,2.32
2018-03-19T00:08:34.921Z,2.29
2018-03-19T00:11:02.791Z,2.00
2018-03-19T00:13:30.471Z,2.39
2018-03-19T00:15:58.105Z,2.34
2018-03-19T00:18:25.859Z,2.34
2018-03-19T00:20:53.968Z,2.03
2018-03-19T00:23:21.666Z,2.11
2018-03-19T00:25:49.266Z,2.40
2018-03-19T00:28:16.996Z,2.22
2018-03-19T00:30:44.768Z,2.52
2018-03-19T00:33:12.603Z,2.43
2018-03-19T00:35:40.276Z,2.46
2018-03-19T00:38:07.916Z,2.42
2018-03-19T00:40:35.827Z,2.35
2018-03-19T00:43:03.796Z,2.26
2018-03-19T00:45:31.689Z,2.32
2018-03-19T00:47:59.463Z,2.50
2018-03-19T00:50:28.883Z,2.45
2018-03-19T00:52:58.603Z,2.29
2018-03-19T00:55:33.779Z,2.30
2018-03-19T00:58:01.643Z,2.50
2018-03-19T01:00:29.315Z,2.56
2018-03-19T01:02:59.105Z,2.56
2018-03-19T01:05:27.926Z,2.41
2018-03-19T01:07:55.778Z,2.36
2018-03-19T01:10:23.469Z,2.38
2018-03-19T01:12:51.223Z,2.34
2018-03-19T01:15:18.901Z,2.23
2018-03-19T01:17:46.589Z,2.40
2018-03-19T01:20:15.244Z,2.31
2018-03-19T01:22:43.119Z,2.53
2018-03-19T01:25:10.797Z,2.16
2018-03-19T01:27:38.623Z,2.46
2018-03-19T01:30:06.285Z,2.27
2018-03-19T01:32:34.030Z,2.32
2018-03-19T01:35:01.816Z,2.54
2018-03-19T01:37:29.667Z,2.47
2018-03-19T01:39:58.799Z,2.49
2018-03-19T01:42:26.366Z,2.23
2018-03-19T01:44:54.106Z,2.53
2018-03-19T01:47:21.815Z,2.37
2018-03-19T01:49:49.564Z,2.16
2018-03-19T01:52:17.272Z,2.36
2018-03-19T01:54:44.832Z,2.28
2018-03-19T01:57:12.239Z,2.30
2018-03-19T01:59:39.616Z,2.59
2018-03-19T02:02:06.996Z,2.55
2018-03-19T02:04:34.553Z,2.17
2018-03-19T02:07:01.930Z,1.98
2018-03-19T02:09:29.316Z,2.16
2018-03-19T02:11:56.698Z,2.31
2018-03-19T02:14:24.132Z,2.31
2018-03-19T02:16:51.527Z,2.19
2018-03-19T02:19:18.931Z,2.32
2018-03-19T02:21:46.321Z,2.27
2018-03-19T02:24:13.773Z,2.36
2018-03-19T02:26:42.156Z,2.32
2018-03-19T02:29:09.584Z,2.20
2018-03-19T02:31:37.033Z,2.36
2018-03-19T02:34:04.478Z,2.11
2018-03-19T02:36:31.862Z,2.12
2018-03-19T02:38:59.266Z,1.97
2018-03-19T02:41:26.657Z,2.01
2018-03-19T02:43:54.228Z,2.25
2018-03-19T02:46:21.615Z,2.43
2018-03-19T02:48:49.064Z,2.41
2018-03-19T02:51:17.541Z,2.21
2018-03-19T02:53:45.265Z,2.43
2018-03-19T02:56:12.674Z,2.51
2018-03-19T02:58:40.063Z,2.51
2018-03-19T03:01:07.469Z,2.28
2018-03-19T03:03:34.972Z,2.11
2018-03-19T03:06:02.357Z,2.36
2018-03-19T03:08:29.754Z,2.38
2018-03-19T03:10:58.150Z,2.31
2018-03-19T03:13:25.521Z,2.22
2018-03-19T03:15:52.924Z,2.08
2018-03-19T03:18:20.324Z,2.04
2018-03-19T03:20:47.775Z,1.96
2018-03-19T03:23:15.705Z,1.99
2018-03-19T03:25:43.100Z,2.10
2018-03-19T03:28:10.492Z,1.95
2018-03-19T03:30:37.877Z,2.00
2018-03-19T03:33:05.327Z,1.99
2018-03-19T03:35:32.724Z,2.24
2018-03-19T03:38:00.109Z,2.12
2018-03-19T03:40:28.572Z,1.91
2018-03-19T03:42:55.974Z,2.34
2018-03-19T03:45:23.519Z,2.36
2018-03-19T03:47:50.954Z,2.16
2018-03-19T03:50:18.350Z,2.24
2018-03-19T03:52:45.749Z,2.11
2018-03-19T03:55:13.163Z,2.13
2018-03-19T03:57:40.658Z,2.28
2018-03-19T04:00:08.043Z,2.23
2018-03-19T04:02:35.593Z,2.16
2018-03-19T04:05:02.978Z,2.29
2018-03-19T04:07:32.332Z,2.28
2018-03-19T04:09:59.749Z,2.53
2018-03-19T04:12:27.132Z,2.14
2018-03-19T04:14:54.648Z,2.10
2018-03-19T04:17:22.032Z,2.28
2018-03-19T04:19:49.702Z,2.25
2018-03-19T04:22:17.097Z,2.20
2018-03-19T04:24:44.492Z,2.24
2018-03-19T04:27:11.877Z,2.23
2018-03-19T04:29:39.346Z,2.24
2018-03-19T04:32:06.743Z,2.18
2018-03-19T04:34:34.129Z,2.23
2018-03-19T04:37:01.577Z,2.23
2018-03-19T04:39:28.972Z,2.17
2018-03-19T04:41:56.351Z,2.13
2018-03-19T04:44:23.806Z,1.90
2018-03-19T04:46:51.197Z,2.03
2018-03-19T04:49:18.588Z,2.17
2018-03-19T04:51:45.993Z,2.18
2018-03-19T04:54:14.588Z,2.36
2018-03-19T04:56:41.995Z,2.38
2018-03-19T04:59:09.396Z,2.16
2018-03-19T05:01:36.872Z,2.32
2018-03-19T05:04:04.273Z,1.99
2018-03-19T05:06:31.663Z,1.86
2018-03-19T05:08:59.092Z,1.72
2018-03-19T05:11:26.474Z,1.61
2018-03-19T05:13:53.855Z,1.53
2018-03-19T05:16:21.245Z,1.86
2018-03-19T05:18:48.646Z,1.63
2018-03-19T05:21:16.060Z,1.93
2018-03-19T05:23:43.483Z,1.98
2018-03-19T05:26:10.858Z,1.95
2018-03-19T05:28:38.361Z,1.93
2018-03-19T05:31:10.654Z,2.00
2018-03-19T05:33:38.229Z,1.91
2018-03-19T05:36:05.600Z,1.85
2018-03-19T05:38:33.683Z,1.89
2018-03-19T05:41:01.064Z,1.86
2018-03-19T05:43:29.230Z,1.56
2018-03-19T05:45:56.658Z,1.82
2018-03-19T05:48:24.057Z,2.05
2018-03-19T05:50:51.560Z,1.64
2018-03-19T05:53:18.977Z,1.93
2018-03-19T05:55:46.336Z,1.91
2018-03-19T05:58:13.743Z,1.88
2018-03-19T06:00:41.132Z,1.82
2018-03-19T06:03:08.522Z,1.87
2018-03-19T06:05:35.912Z,1.89
2018-03-19T06:08:03.360Z,2.03
2018-03-19T06:10:30.811Z,2.06
2018-03-19T06:12:58.145Z,2.18
2018-03-19T06:15:25.588Z,2.08
2018-03-19T06:17:53.036Z,2.09
2018-03-19T06:20:20.431Z,1.90
2018-03-19T06:22:47.885Z,1.86
2018-03-19T06:25:15.311Z,2.03
2018-03-19T06:27:42.692Z,2.10
2018-03-19T06:30:10.088Z,2.47
2018-03-19T06:32:37.512Z,2.07
2018-03-19T06:35:04.904Z,1.89
2018-03-19T06:37:32.282Z,1.93
2018-03-19T06:39:59.667Z,2.22
2018-03-19T06:42:27.085Z,2.08
2018-03-19T06:44:54.488Z,2.00
2018-03-19T06:47:21.883Z,1.96
2018-03-19T06:49:49.303Z,1.80
2018-03-19T06:52:16.689Z,2.01
2018-03-19T06:54:44.066Z,2.09
2018-03-19T06:57:11.459Z,2.09
2018-03-19T06:59:38.845Z,1.89
2018-03-19T07:02:06.276Z,2.01
2018-03-19T07:04:33.649Z,2.05
2018-03-19T07:07:01.061Z,1.90
2018-03-19T07:09:28.719Z,2.11
2018-03-19T07:11:56.079Z,2.09
2018-03-19T07:14:23.540Z,1.85
2018-03-19T07:16:50.934Z,2.09
2018-03-19T07:19:18.354Z,2.06
2018-03-19T07:21:45.752Z,2.22
2018-03-19T07:24:13.249Z,2.02
2018-03-19T07:26:40.641Z,2.24
2018-03-19T07:29:08.028Z,2.48
2018-03-19T07:31:35.709Z,2.02
2018-03-19T07:34:03.115Z,2.03
2018-03-19T07:36:30.522Z,1.87
2018-03-19T07:38:57.917Z,2.07
2018-03-19T07:41:25.413Z,2.05
2018-03-19T07:43:52.940Z,2.20
2018-03-19T07:46:20.344Z,2.11
2018-03-19T07:48:47.732Z,2.21
2018-03-19T07:51:15.164Z,2.21
2018-03-19T07:53:42.697Z,2.51
2018-03-19T07:56:10.077Z,2.46
2018-03-19T07:58:37.597Z,2.49
2018-03-19T08:01:05.093Z,2.49
2018-03-19T08:03:32.479Z,2.48
2018-03-19T08:06:00.145Z,2.53
2018-03-19T08:08:27.601Z,2.24
2018-03-19T08:10:54.988Z,2.53
2018-03-19T08:13:22.362Z,2.76
2018-03-19T08:15:49.774Z,2.74
2018-03-19T08:18:17.140Z,2.92
2018-03-19T08:20:44.554Z,2.50
2018-03-19T08:23:11.961Z,2.59
2018-03-19T08:25:39.352Z,2.57
2018-03-19T08:28:06.720Z,2.78
2018-03-19T08:30:34.159Z,2.96
2018-03-19T08:33:01.496Z,2.77
2018-03-19T08:35:28.893Z,2.70
2018-03-19T08:37:56.290Z,2.78
2018-03-19T08:40:23.681Z,3.05
2018-03-19T08:42:51.056Z,3.04
2018-03-19T08:45:18.448Z,3.24
2018-03-19T08:47:45.821Z,3.48
2018-03-19T08:50:13.228Z,3.63
2018-03-19T08:52:40.608Z,3.37
2018-03-19T08:55:07.991Z,3.55
2018-03-19T08:57:35.424Z,3.46
2018-03-19T09:00:02.824Z,3.63
2018-03-19T09:02:30.346Z,3.90
2018-03-19T09:04:57.862Z,4.02
2018-03-19T09:07:25.285Z,4.06
2018-03-19T09:09:53.113Z,4.01
2018-03-19T09:12:20.508Z,4.21
2018-03-19T09:14:47.880Z,4.59
2018-03-19T09:17:15.282Z,4.41
2018-03-19T09:19:42.650Z,3.99
2018-03-19T09:22:10.038Z,4.36
2018-03-19T09:24:37.484Z,4.48
2018-03-19T09:27:04.961Z,4.76
2018-03-19T09:29:32.400Z,4.66
2018-03-19T09:32:00.689Z,4.83
2018-03-19T09:34:28.063Z,4.82
2018-03-19T09:36:55.658Z,4.61
2018-03-19T09:39:23.120Z,4.65
2018-03-19T09:41:50.504Z,4.47
2018-03-19T09:44:18.033Z,4.96
2018-03-19T09:46:45.421Z,5.29
2018-03-19T09:49:12.835Z,5.15
2018-03-19T09:51:40.398Z,5.42
2018-03-19T09:54:07.791Z,5.23
2018-03-19T09:56:35.175Z,5.31
2018-03-19T09:59:02.756Z,5.37
2018-03-19T10:01:30.773Z,5.61
2018-03-19T10:03:58.268Z,5.75
2018-03-19T10:06:25.682Z,5.95
2018-03-19T10:08:53.107Z,5.89
2018-03-19T10:11:20.491Z,5.59
2018-03-19T10:13:47.906Z,5.88
2018-03-19T10:16:15.385Z,6.03
2018-03-19T10:18:42.733Z,5.97
2018-03-19T10:21:10.139Z,6.09
2018-03-19T10:23:37.624Z,6.13
2018-03-19T10:26:05.036Z,6.20
2018-03-19T10:28:32.439Z,6.36
2018-03-19T10:31:00.869Z,6.34
2018-03-19T10:33:28.328Z,6.82
2018-03-19T10:35:55.689Z,6.75
2018-03-19T10:38:23.204Z,7.00
2018-03-19T10:40:50.616Z,7.25
2018-03-19T10:43:18.240Z,7.38
2018-03-19T10:45:45.825Z,7.03
2018-03-19T10:48:13.295Z,6.99
2018-03-19T10:50:40.701Z,7.10
2018-03-19T10:53:08.132Z,7.10
2018-03-19T10:55:35.542Z,7.04
2018-03-19T10:58:02.938Z,7.15
2018-03-19T11:00:31.144Z,7.66
2018-03-19T11:03:04.168Z,7.60
2018-03-19T11:05:31.581Z,7.55
2018-03-19T11:08:04.642Z,7.70
2018-03-19T11:10:32.041Z,7.86
2018-03-19T11:12:59.453Z,7.79
2018-03-19T11:15:26.853Z,8.15
2018-03-19T11:17:54.247Z,8.45
2018-03-19T11:20:21.644Z,8.42
2018-03-19T11:22:49.037Z,8.31
2018-03-19T11:25:16.416Z,8.62
2018-03-19T11:27:43.805Z,8.62
2018-03-19T11:30:11.209Z,8.23
2018-03-19T11:32:38.633Z,8.38
2018-03-19T11:35:06.017Z,7.86
2018-03-19T11:37:33.401Z,8.30
2018-03-19T11:40:01.300Z,8.04
2018-03-19T11:42:28.692Z,8.34
2018-03-19T11:45:04.026Z,8.58
2018-03-19T11:47:34.441Z,8.69
2018-03-19T11:50:01.962Z,8.92
2018-03-19T11:52:29.370Z,8.91
2018-03-19T11:54:56.746Z,8.74
2018-03-19T11:57:24.132Z,8.71
2018-03-19T11:59:51.519Z,9.07
2018-03-19T12:02:18.950Z,8.86
2018-03-19T12:04:46.342Z,9.24
2018-03-19T12:07:13.725Z,9.30
2018-03-19T12:09:41.163Z,8.85
2018-03-19T12:12:08.542Z,8.81
2018-03-19T12:14:35.965Z,9.08
2018-03-19T12:17:03.366Z,9.36
2018-03-19T12:19:31.484Z,9.47
2018-03-19T12:21:59.246Z,9.33
2018-03-19T12:24:26.621Z,9.42
2018-03-19T12:26:54.913Z,9.54
2018-03-19T12:29:22.302Z,9.74
2018-03-19T12:31:49.689Z,9.87
2018-03-19T12:34:17.074Z,9.67
2018-03-19T12:36:44.473Z,9.75
2018-03-19T12:39:11.865Z,10.03
2018-03-19T12:41:39.279Z,10.12
2018-03-19T12:44:06.666Z,10.19
2018-03-19T12:46:34.045Z,9.99
2018-03-19T12:49:01.695Z,10.14
2018-03-19T12:51:30.894Z,9.71
2018-03-19T12:53:58.277Z,9.66
2018-03-19T12:56:25.658Z,9.19
2018-03-19T12:58:53.045Z,9.60
2018-03-19T13:01:20.420Z,9.55
2018-03-19T13:03:47.831Z,9.81
2018-03-19T13:06:15.541Z,9.84
2018-03-19T13:08:42.949Z,8.97
2018-03-19T13:11:10.320Z,8.92
2018-03-19T13:13:37.707Z,9.13
2018-03-19T13:16:05.086Z,9.07
2018-03-19T13:18:32.581Z,8.82
2018-03-19T13:20:59.962Z,9.12
2018-03-19T13:23:27.399Z,8.98
2018-03-19T13:25:55.738Z,9.16
2018-03-19T13:28:23.170Z,9.35
2018-03-19T13:30:50.591Z,9.41
2018-03-19T13:33:17.952Z,9.30
2018-03-19T13:35:45.332Z,9.14
2018-03-19T13:38:12.726Z,9.41
2018-03-19T13:40:40.109Z,9.17
2018-03-19T13:43:07.490Z,8.88
2018-03-19T13:45:35.790Z,8.54
2018-03-19T13:48:03.174Z,8.61
2018-03-19T13:50:30.575Z,8.54
2018-03-19T13:52:57.952Z,8.42
2018-03-19T13:55:25.354Z,7.84
2018-03-19T13:57:52.725Z,7.97
2018-03-19T14:00:20.128Z,8.17
2018-03-19T14:02:47.585Z,8.27
2018-03-19T14:05:14.988Z,8.29
2018-03-19T14:07:42.385Z,8.30
2018-03-19T14:10:09.777Z,8.22
2018-03-19T14:12:37.148Z,8.12
2018-03-19T14:15:04.545Z,8.36
2018-03-19T14:17:32.216Z,8.18
2018-03-19T14:19:59.613Z,8.36
2018-03-19T14:22:27.064Z,9.35
2018-03-19T14:24:56.284Z,11.29
2018-03-19T14:27:23.664Z,12.82
2018-03-19T14:29:51.077Z,13.80
2018-03-19T14:32:18.453Z,14.70
2018-03-19T14:34:45.842Z,15.49
2018-03-19T14:37:13.237Z,13.39
2018-03-19T14:39:40.636Z,13.91
2018-03-19T14:42:08.039Z,13.86
2018-03-19T14:44:35.420Z,14.06
2018-03-19T14:47:02.825Z,13.34
2018-03-19T14:49:30.214Z,13.77
2018-03-19T14:52:01.873Z,15.24
2018-03-19T14:54:32.411Z,14.44
2018-03-19T14:57:00.638Z,15.23
2018-03-19T14:59:31.630Z,15.34
2018-03-19T15:02:05.068Z,15.59
2018-03-19T15:04:32.608Z,16.10
2018-03-19T15:07:00.826Z,14.82
2018-03-19T15:09:28.213Z,14.84
2018-03-19T15:11:55.628Z,14.20
2018-03-19T15:14:23.026Z,14.58
2018-03-19T15:16:50.419Z,14.03
2018-03-19T15:19:17.838Z,14.06
2018-03-19T15:21:45.241Z,14.04
2018-03-19T15:24:12.642Z,14.64
2018-03-19T15:26:40.064Z,14.78
2018-03-19T15:29:07.454Z,15.05
2018-03-19T15:31:34.849Z,14.75
2018-03-19T15:34:02.613Z,14.69
2018-03-19T15:36:30.004Z,14.26
2018-03-19T15:38:57.414Z,14.84
2018-03-19T15:41:24.845Z,14.81
2018-03-19T15:43:52.262Z,15.27
2018-03-19T15:46:19.633Z,15.77
2018-03-19T15:48:47.048Z,14.85
2018-03-19T15:51:14.451Z,13.33
2018-03-19T15:53:41.824Z,14.83
2018-03-19T15:56:09.218Z,14.99
2018-03-19T15:58:36.636Z,15.27
2018-03-19T16:01:04.040Z,15.32
2018-03-19T16:03:31.417Z,14.94
2018-03-19T16:05:58.818Z,15.31
2018-03-19T16:08:26.228Z,14.01
2018-03-19T16:10:53.649Z,13.50
2018-03-19T16:13:21.043Z,14.11
2018-03-19T16:15:48.437Z,14.20
2018-03-19T16:18:15.861Z,13.86
2018-03-19T16:20:43.251Z,13.82
2018-03-19T16:23:10.640Z,13.10
2018-03-19T16:25:38.014Z,13.18
2018-03-19T16:28:05.447Z,13.50
2018-03-19T16:30:32.825Z,14.33
2018-03-19T16:33:00.220Z,14.61
2018-03-19T16:35:27.628Z,13.54
2018-03-19T16:37:55.018Z,12.60
2018-03-19T16:40:22.412Z,12.61
2018-03-19T16:42:49.846Z,12.55
2018-03-19T16:45:17.392Z,12.77
2018-03-19T16:47:44.952Z,11.90
2018-03-19T16:50:13.695Z,11.05
2018-03-19T16:52:42.253Z,10.61
2018-03-19T16:55:09.633Z,10.11
2018-03-19T16:57:37.035Z,9.42
2018-03-19T17:00:04.436Z,9.33
2018-03-19T17:02:32.783Z,9.47
2018-03-19T17:05:00.177Z,9.29
2018-03-19T17:07:27.561Z,8.78
2018-03-19T17:09:54.954Z,8.88
2018-03-19T17:12:22.436Z,8.65
2018-03-19T17:14:49.854Z,8.47
2018-03-19T17:17:17.250Z,8.29
2018-03-19T17:19:44.641Z,8.16
2018-03-19T17:22:12.044Z,8.34
2018-03-19T17:24:39.507Z,8.18
2018-03-19T17:27:07.208Z,8.08
2018-03-19T17:29:34.698Z,8.03
2018-03-19T17:32:03.000Z,7.83
2018-03-19T17:34:30.510Z,7.79
2018-03-19T17:36:57.907Z,7.84
2018-03-19T17:39:25.277Z,7.59
2018-03-19T17:41:52.685Z,7.44
2018-03-19T17:44:20.090Z,7.42
2018-03-19T17:46:47.492Z,7.33
2018-03-19T17:49:14.894Z,7.22
2018-03-19T17:51:42.388Z,7.09
2018-03-19T17:54:09.877Z,7.26
2018-03-19T17:56:37.249Z,7.06
2018-03-19T17:59:04.641Z,7.02
2018-03-19T18:01:33.155Z,7.27
2018-03-19T18:04:00.546Z,7.08
2018-03-19T18:06:28.040Z,7.21
2018-03-19T18:08:55.458Z,6.84
2018-03-19T18:11:22.840Z,6.75
2018-03-19T18:13:50.242Z,6.65
2018-03-19T18:16:17.671Z,6.60
2018-03-19T18:18:45.097Z,6.61
2018-03-19T18:21:12.492Z,6.75
2018-03-19T18:23:39.920Z,6.88
2018-03-19T18:26:07.518Z,6.75
2018-03-19T18:28:34.906Z,6.54
2018-03-19T18:31:03.119Z,6.93
2018-03-19T18:33:30.829Z,6.76
2018-03-19T18:35:58.200Z,6.95
2018-03-19T18:38:25.793Z,6.82
2018-03-19T18:40:53.212Z,6.53
2018-03-19T18:43:20.672Z,6.24
2018-03-19T18:45:48.127Z,6.45
2018-03-19T18:48:15.597Z,6.53
2018-03-19T18:50:43.095Z,6.21
2018-03-19T18:53:10.485Z,6.05
2018-03-19T18:55:38.978Z,6.19
2018-03-19T18:58:06.481Z,6.12
2018-03-19T19:00:34.196Z,6.25
2018-03-19T19:03:01.574Z,6.19
2018-03-19T19:05:29.149Z,6.07
2018-03-19T19:07:56.528Z,6.05
2018-03-19T19:10:33.474Z,5.90
2018-03-19T19:13:05.386Z,6.21
2018-03-19T19:15:33.374Z,5.95
2018-03-19T19:18:00.806Z,5.88
2018-03-19T19:20:28.283Z,6.03
2018-03-19T19:22:55.873Z,6.16
2018-03-19T19:25:23.327Z,5.82
2018-03-19T19:27:50.705Z,5.94
2018-03-19T19:30:18.174Z,5.69
2018-03-19T19:32:45.562Z,5.50
2018-03-19T19:35:12.970Z,5.73
2018-03-19T19:37:40.349Z,5.92
2018-03-19T19:40:07.766Z,5.88
2018-03-19T19:42:35.140Z,5.70
2018-03-19T19:45:03.450Z,5.61
2018-03-19T19:47:30.918Z,5.38
2018-03-19T19:49:58.297Z,5.60
2018-03-19T19:52:25.767Z,5.42
2018-03-19T19:54:53.092Z,5.29
2018-03-19T19:57:22.571Z,5.56
2018-03-19T19:59:49.984Z,5.87
2018-03-19T20:02:17.371Z,5.81
2018-03-19T20:04:44.749Z,5.46
2018-03-19T20:07:12.164Z,5.46
2018-03-19T20:09:43.992Z,5.52
2018-03-19T20:12:11.410Z,5.53
2018-03-19T20:14:38.868Z,5.44
2018-03-19T20:17:06.265Z,5.22
2018-03-19T20:19:33.677Z,5.56
2018-03-19T20:22:01.186Z,5.25
2018-03-19T20:24:28.580Z,5.00
2018-03-19T20:26:55.985Z,5.24
2018-03-19T20:29:23.595Z,5.15
2018-03-19T20:31:50.901Z,5.01
2018-03-19T20:34:18.416Z,5.06
2018-03-19T20:36:45.795Z,5.19
2018-03-19T20:39:13.196Z,5.12
2018-03-19T20:41:40.591Z,5.27
2018-03-19T20:44:07.980Z,5.26
2018-03-19T20:46:35.393Z,4.85
2018-03-19T20:49:02.816Z,4.66
2018-03-19T20:51:30.228Z,5.11
2018-03-19T20:53:58.487Z,4.85
2018-03-19T20:56:25.892Z,4.70
2018-03-19T20:58:53.292Z,4.88
2018-03-19T21:01:21.657Z,4.87
2018-03-19T21:03:49.105Z,4.90
2018-03-19T21:06:16.485Z,4.92
2018-03-19T21:08:43.925Z,4.93
2018-03-19T21:11:11.310Z,4.59
2018-03-19T21:13:38.696Z,4.46
2018-03-19T21:16:06.140Z,4.52
2018-03-19T21:18:33.821Z,4.64
2018-03-19T21:21:01.461Z,4.82
2018-03-19T21:23:28.836Z,4.41
2018-03-19T21:25:56.249Z,4.51
2018-03-19T21:28:23.641Z,4.52
2018-03-19T21:30:51.150Z,4.52
2018-03-19T21:33:18.644Z,4.36
2018-03-19T21:35:46.048Z,4.56
2018-03-19T21:38:13.706Z,4.37
2018-03-19T21:40:41.192Z,4.20
2018-03-19T21:43:08.593Z,4.40
2018-03-19T21:45:35.988Z,4.50
2018-03-19T21:48:04.211Z,4.42
2018-03-19T21:50:31.627Z,3.95
2018-03-19T21:52:59.069Z,4.22
2018-03-19T21:55:26.577Z,4.28
2018-03-19T21:57:53.993Z,4.35
2018-03-19T22:00:21.438Z,4.25
2018-03-19T22:02:49.003Z,4.48
2018-03-19T22:05:16.385Z,4.36
2018-03-19T22:07:43.796Z,4.41
2018-03-19T22:10:11.265Z,4.16
2018-03-19T22:12:38.661Z,4.41
2018-03-19T22:15:06.059Z,4.35
2018-03-19T22:17:34.152Z,4.34
2018-03-19T22:20:01.546Z,4.25
2018-03-19T22:22:28.937Z,4.26
2018-03-19T22:24:56.440Z,4.34
2018-03-19T22:27:23.880Z,4.03
2018-03-19T22:29:51.256Z,3.90
2018-03-19T22:32:18.656Z,4.00
2018-03-19T22:34:46.089Z,4.24
2018-03-19T22:37:13.786Z,4.07
2018-03-19T22:39:41.210Z,4.21
2018-03-19T22:42:08.594Z,4.13
2018-03-19T22:44:36.513Z,4.04
2018-03-19T22:47:04.268Z,4.27
2018-03-19T22:49:31.657Z,3.94
2018-03-19T22:51:59.161Z,3.90
2018-03-19T22:54:26.561Z,4.00
2018-03-19T22:56:54.003Z,4.16
2018-03-19T22:59:23.303Z,4.01
2018-03-19T23:01:50.929Z,4.16
2018-03-19T23:04:30.398Z,4.32
2018-03-19T23:06:58.020Z,3.98
2018-03-19T23:09:27.008Z,3.90
2018-03-19T23:11:54.709Z,3.78
2018-03-19T23:14:22.339Z,4.11
2018-03-19T23:16:50.206Z,3.84
2018-03-19T23:19:18.143Z,4.06
2018-03-19T23:21:45.947Z,3.74
2018-03-19T23:24:13.624Z,3.90
2018-03-19T23:26:41.237Z,3.86
2018-03-19T23:29:08.856Z,3.81
2018-03-19T23:31:36.579Z,3.73
2018-03-19T23:34:07.968Z,3.99
2018-03-19T23:36:36.043Z,3.74
2018-03-19T23:39:04.778Z,3.69
2018-03-19T23:41:32.465Z,3.83
2018-03-19T23:44:01.185Z,3.71
2018-03-19T23:46:30.722Z,3.40
2018-03-19T23:48:58.380Z,3.77
2018-03-19T23:51:26.135Z,3.69
2018-03-19T23:53:53.854Z,3.79
2018-03-19T23:56:21.478Z,3.86
2018-03-19T23:58:49.163Z,3.75
